createdAt,value
2022-08-20T00:00:05.381Z,0
2022-08-20T00:01:05.977Z,0
2022-08-20T00:02:06.604Z,0
2022-08-20T00:03:07.172Z,0
2022-08-20T00:04:07.772Z,0
2022-08-20T00:05:09.363Z,0
2022-08-20T00:06:09.971Z,0
2022-08-20T00:07:10.562Z,0
2022-08-20T00:08:11.176Z,0
2022-08-20T00:09:11.773Z,0
2022-08-20T00:10:12.380Z,0
2022-08-20T00:11:12.969Z,0
2022-08-20T00:12:13.568Z,0
2022-08-20T00:13:14.165Z,0
2022-08-20T00:14:15.757Z,0
2022-08-20T00:15:16.353Z,0
2022-08-20T00:16:16.953Z,0
2022-08-20T00:17:17.549Z,0
2022-08-20T00:18:18.149Z,0
2022-08-20T00:19:18.746Z,0
2022-08-20T00:20:19.346Z,0
2022-08-20T00:21:19.944Z,0
2022-08-20T00:22:20.753Z,0
2022-08-20T00:23:21.349Z,0
2022-08-20T00:24:21.947Z,0
2022-08-20T00:25:22.547Z,0
2022-08-20T00:26:23.144Z,0
2022-08-20T00:27:23.743Z,0
2022-08-20T00:28:24.340Z,0
2022-08-20T00:29:24.942Z,0
2022-08-20T00:30:25.557Z,0
2022-08-20T00:31:26.164Z,0
2022-08-20T00:32:26.754Z,0
2022-08-20T00:33:27.371Z,0
2022-08-20T00:34:27.952Z,0
2022-08-20T00:35:28.553Z,0
2022-08-20T00:36:32.845Z,0
2022-08-20T00:37:30.739Z,0
2022-08-20T00:38:31.339Z,0
2022-08-20T00:39:31.972Z,0
2022-08-20T00:40:32.535Z,0
2022-08-20T00:41:33.133Z,0
2022-08-20T00:42:33.731Z,0
2022-08-20T00:43:34.332Z,0
2022-08-20T00:44:34.926Z,0
2022-08-20T00:45:35.526Z,0
2022-08-20T00:46:36.125Z,0
2022-08-20T00:47:36.724Z,0
2022-08-20T00:48:37.320Z,0
2022-08-20T00:49:37.917Z,0
2022-08-20T00:50:38.535Z,0
2022-08-20T00:51:39.133Z,0
2022-08-20T00:52:39.731Z,0
2022-08-20T00:53:41.323Z,0
2022-08-20T00:54:41.922Z,0
2022-08-20T00:55:42.539Z,0
2022-08-20T00:56:43.138Z,0
2022-08-20T00:57:58.903Z,0
2022-08-20T00:58:45.331Z,0
2022-08-20T00:59:45.929Z,0
2022-08-20T01:00:46.530Z,0
2022-08-20T01:01:56.205Z,0
2022-08-20T01:02:48.736Z,0
2022-08-20T01:03:49.334Z,0
2022-08-20T01:04:49.941Z,0
2022-08-20T01:05:50.554Z,0
2022-08-20T01:06:51.151Z,0
2022-08-20T01:07:51.778Z,0
2022-08-20T01:08:53.392Z,0
2022-08-20T01:09:59.051Z,0
2022-08-20T01:10:55.582Z,0
2022-08-20T01:11:56.181Z,0
2022-08-20T01:12:59.174Z,0
2022-08-20T01:13:58.376Z,0
2022-08-20T01:14:58.969Z,0
2022-08-20T01:15:59.568Z,0
2022-08-20T01:17:00.166Z,0
2022-08-20T01:18:00.765Z,0
2022-08-20T01:19:01.364Z,0
2022-08-20T01:20:01.966Z,0
2022-08-20T01:21:02.560Z,0
2022-08-20T01:22:03.173Z,0
2022-08-20T01:23:03.758Z,0
2022-08-20T01:24:04.357Z,0
2022-08-20T01:25:04.955Z,0
2022-08-20T01:26:05.554Z,0
2022-08-20T01:27:06.152Z,0
2022-08-20T01:28:06.769Z,0
2022-08-20T01:29:07.367Z,0
2022-08-20T01:30:07.965Z,0
2022-08-20T01:31:09.021Z,0
2022-08-20T01:32:09.619Z,0
2022-08-20T01:33:10.216Z,0
2022-08-20T01:34:10.834Z,0
2022-08-20T01:35:11.430Z,0
2022-08-20T01:36:12.831Z,0
2022-08-20T01:37:13.401Z,0
2022-08-20T01:38:14.001Z,0
2022-08-20T01:39:14.602Z,0
2022-08-20T01:40:15.288Z,0
2022-08-20T01:41:15.868Z,0
2022-08-20T01:42:16.466Z,0
2022-08-20T01:43:17.272Z,0
2022-08-20T01:44:18.735Z,0
2022-08-20T01:45:19.964Z,0
2022-08-20T01:46:21.559Z,0
2022-08-20T01:47:22.630Z,0
2022-08-20T01:48:23.227Z,0
2022-08-20T01:49:23.851Z,0
2022-08-20T01:50:24.449Z,0
2022-08-20T01:51:25.046Z,0
2022-08-20T01:52:25.645Z,0
2022-08-20T01:53:26.241Z,0
2022-08-20T01:54:26.839Z,0
2022-08-20T01:55:27.446Z,0
2022-08-20T01:56:28.057Z,0
2022-08-20T01:57:28.654Z,0
2022-08-20T01:58:29.253Z,0
2022-08-20T01:59:29.849Z,0
2022-08-20T02:00:30.448Z,0
2022-08-20T02:01:31.083Z,0
2022-08-20T02:02:32.638Z,0
2022-08-20T02:03:38.044Z,0
2022-08-20T02:04:34.828Z,0
2022-08-20T02:05:35.427Z,0
2022-08-20T02:06:36.026Z,0
2022-08-20T02:07:36.622Z,0
2022-08-20T02:08:37.221Z,0
2022-08-20T02:09:37.819Z,0
2022-08-20T02:10:38.415Z,0
2022-08-20T02:11:39.013Z,0
2022-08-20T02:12:39.613Z,0
2022-08-20T02:13:40.210Z,0
2022-08-20T02:14:40.808Z,0
2022-08-20T02:15:43.250Z,0
2022-08-20T02:16:42.996Z,0
2022-08-20T02:17:43.595Z,0
2022-08-20T02:18:44.195Z,0
2022-08-20T02:19:44.791Z,0
2022-08-20T02:20:45.409Z,0
2022-08-20T02:21:46.007Z,0
2022-08-20T02:22:49.800Z,0
2022-08-20T02:23:48.194Z,0
2022-08-20T02:24:48.792Z,0
2022-08-20T02:25:49.410Z,0
2022-08-20T02:26:50.022Z,0
2022-08-20T02:27:50.607Z,0
2022-08-20T02:28:51.207Z,0
2022-08-20T02:29:51.805Z,0
2022-08-20T02:30:52.403Z,0
2022-08-20T02:32:24.422Z,0
2022-08-20T02:32:56.286Z,0
2022-08-20T02:34:21.943Z,0
2022-08-20T02:34:57.795Z,0
2022-08-20T02:35:58.392Z,0
2022-08-20T02:36:58.990Z,0
2022-08-20T02:37:59.588Z,0
2022-08-20T02:39:00.186Z,0
2022-08-20T02:40:00.828Z,0
2022-08-20T02:41:01.483Z,0
2022-08-20T02:42:02.081Z,0
2022-08-20T02:43:02.677Z,0
2022-08-20T02:44:03.276Z,0
2022-08-20T02:45:03.875Z,0
2022-08-20T02:46:04.473Z,0
2022-08-20T02:47:05.073Z,0
2022-08-20T02:48:05.671Z,0
2022-08-20T02:49:06.272Z,0
2022-08-20T02:50:08.015Z,0
2022-08-20T02:51:08.460Z,0
2022-08-20T02:52:09.059Z,0
2022-08-20T02:53:09.658Z,0
2022-08-20T02:54:10.253Z,0
2022-08-20T02:55:10.850Z,0
2022-08-20T02:56:12.441Z,0
2022-08-20T02:57:13.039Z,0
2022-08-20T02:58:13.634Z,0
2022-08-20T02:59:19.054Z,0
2022-08-20T03:00:15.824Z,0
2022-08-20T03:01:16.467Z,0
2022-08-20T03:02:17.015Z,0
2022-08-20T03:03:17.613Z,0
2022-08-20T03:04:18.210Z,0
2022-08-20T03:05:18.810Z,0
2022-08-20T03:06:19.407Z,0
2022-08-20T03:07:20.005Z,0
2022-08-20T03:08:20.602Z,0
2022-08-20T03:09:21.200Z,0
2022-08-20T03:10:21.800Z,0
2022-08-20T03:11:23.391Z,0
2022-08-20T03:12:23.991Z,0
2022-08-20T03:13:24.607Z,0
2022-08-20T03:14:25.201Z,0
2022-08-20T03:15:25.803Z,0
2022-08-20T03:16:26.401Z,0
2022-08-20T03:17:27.457Z,0
2022-08-20T03:18:28.056Z,0
2022-08-20T03:19:28.656Z,0
2022-08-20T03:20:29.253Z,0
2022-08-20T03:21:29.852Z,0
2022-08-20T03:22:30.452Z,0
2022-08-20T03:23:31.048Z,0
2022-08-20T03:24:31.645Z,0
2022-08-20T03:25:32.244Z,0
2022-08-20T03:26:32.842Z,0
2022-08-20T03:27:36.444Z,0
2022-08-20T03:28:35.040Z,0
2022-08-20T03:29:35.634Z,0
2022-08-20T03:30:36.228Z,0
2022-08-20T03:31:36.831Z,0
2022-08-20T03:32:37.446Z,0
2022-08-20T03:33:38.044Z,0
2022-08-20T03:34:39.634Z,0
2022-08-20T03:35:40.232Z,0
2022-08-20T03:36:40.830Z,0
2022-08-20T03:37:42.173Z,0
2022-08-20T03:38:43.018Z,0
2022-08-20T03:39:43.648Z,0
2022-08-20T03:40:44.224Z,0
2022-08-20T03:41:44.823Z,0
2022-08-20T03:42:45.419Z,0
2022-08-20T03:43:46.018Z,0
2022-08-20T03:44:46.618Z,0
2022-08-20T03:45:47.216Z,4
2022-08-20T03:46:47.817Z,4
2022-08-20T03:47:48.414Z,4
2022-08-20T03:48:49.019Z,4
2022-08-20T03:49:50.602Z,4
2022-08-20T03:50:51.202Z,8
2022-08-20T03:51:57.463Z,8
2022-08-20T03:52:53.390Z,12
2022-08-20T03:53:53.989Z,12
2022-08-20T03:54:54.588Z,16
2022-08-20T03:55:56.446Z,16
2022-08-20T03:56:56.779Z,20
2022-08-20T03:57:57.573Z,20
2022-08-20T03:58:58.221Z,28
2022-08-20T03:59:58.821Z,32
2022-08-20T04:00:59.465Z,40
2022-08-20T04:02:00.126Z,44
2022-08-20T04:03:00.776Z,52
2022-08-20T04:04:01.350Z,56
2022-08-20T04:05:01.947Z,64
2022-08-20T04:06:02.546Z,76
2022-08-20T04:07:03.143Z,88
2022-08-20T04:08:03.751Z,100
2022-08-20T04:09:04.343Z,116
2022-08-20T04:10:04.945Z,136
2022-08-20T04:11:05.545Z,156
2022-08-20T04:12:06.145Z,172
2022-08-20T04:13:06.745Z,192
2022-08-20T04:14:07.732Z,212
2022-08-20T04:15:09.327Z,236
2022-08-20T04:16:13.467Z,260
2022-08-20T04:17:12.515Z,288
2022-08-20T04:18:13.351Z,312
2022-08-20T04:19:13.952Z,336
2022-08-20T04:20:14.556Z,380
2022-08-20T04:21:15.156Z,452
2022-08-20T04:22:15.760Z,528
2022-08-20T04:23:16.381Z,592
2022-08-20T04:24:21.942Z,632
2022-08-20T04:25:18.578Z,652
2022-08-20T04:26:20.173Z,684
2022-08-20T04:27:20.773Z,716
2022-08-20T04:28:21.376Z,744
2022-08-20T04:29:21.978Z,748
2022-08-20T04:30:22.578Z,740
2022-08-20T04:31:25.042Z,756
2022-08-20T04:32:24.773Z,804
2022-08-20T04:33:33.795Z,904
2022-08-20T04:34:25.989Z,1036
2022-08-20T04:35:26.593Z,1140
2022-08-20T04:36:27.198Z,1204
2022-08-20T04:37:27.801Z,1228
2022-08-20T04:38:50.662Z,1220
2022-08-20T04:39:29.998Z,1188
2022-08-20T04:40:30.600Z,1184
2022-08-20T04:41:31.204Z,1232
2022-08-20T04:42:31.806Z,1332
2022-08-20T04:43:33.158Z,1464
2022-08-20T04:44:33.760Z,1588
2022-08-20T04:45:34.363Z,1680
2022-08-20T04:46:34.984Z,1724
2022-08-20T04:47:35.585Z,1752
2022-08-20T04:48:36.186Z,1772
2022-08-20T04:49:37.122Z,1788
2022-08-20T04:50:37.727Z,1816
2022-08-20T04:51:38.349Z,1844
2022-08-20T04:52:38.955Z,1860
2022-08-20T04:53:39.573Z,1860
2022-08-20T04:54:40.177Z,1844
2022-08-20T04:55:40.783Z,1812
2022-08-20T04:56:41.381Z,1780
2022-08-20T04:57:41.983Z,1748
2022-08-20T04:58:42.584Z,1720
2022-08-20T04:59:43.189Z,1688
2022-08-20T05:00:43.798Z,1656
2022-08-20T05:01:44.396Z,1624
2022-08-20T05:02:44.997Z,1604
2022-08-20T05:03:45.602Z,1584
2022-08-20T05:04:46.203Z,1580
2022-08-20T05:05:46.806Z,1588
2022-08-20T05:06:47.407Z,1608
2022-08-20T05:07:48.009Z,1636
2022-08-20T05:08:48.611Z,1676
2022-08-20T05:09:49.212Z,1732
2022-08-20T05:10:49.821Z,1780
2022-08-20T05:11:51.411Z,1808
2022-08-20T05:12:56.564Z,1824
2022-08-20T05:13:53.609Z,1852
2022-08-20T05:14:54.232Z,1880
2022-08-20T05:15:54.834Z,1924
2022-08-20T05:16:55.437Z,1956
2022-08-20T05:17:56.174Z,2020
2022-08-20T05:18:56.824Z,2068
2022-08-20T05:19:57.415Z,2128
2022-08-20T05:20:58.032Z,2204
2022-08-20T05:21:58.616Z,2292
2022-08-20T05:22:59.707Z,2384
2022-08-20T05:24:00.308Z,2488
2022-08-20T05:25:00.910Z,2604
2022-08-20T05:26:01.514Z,2748
2022-08-20T05:27:03.110Z,2904
2022-08-20T05:28:03.733Z,3064
2022-08-20T05:29:04.338Z,3236
2022-08-20T05:30:04.938Z,3404
2022-08-20T05:31:05.558Z,3592
2022-08-20T05:32:06.164Z,3764
2022-08-20T05:33:06.767Z,3932
2022-08-20T05:34:07.373Z,4140
2022-08-20T05:35:07.974Z,4340
2022-08-20T05:36:08.580Z,4524
2022-08-20T05:37:09.182Z,4732
2022-08-20T05:38:09.788Z,4936
2022-08-20T05:39:10.434Z,5128
2022-08-20T05:40:11.070Z,5312
2022-08-20T05:41:11.668Z,5508
2022-08-20T05:42:13.265Z,5672
2022-08-20T05:43:13.869Z,5848
2022-08-20T05:44:14.477Z,6028
2022-08-20T05:45:15.097Z,6248
2022-08-20T05:46:15.700Z,6480
2022-08-20T05:47:16.303Z,6712
2022-08-20T05:48:16.911Z,6908
2022-08-20T05:49:17.532Z,7100
2022-08-20T05:50:20.646Z,7288
2022-08-20T05:51:19.735Z,7492
2022-08-20T05:52:20.337Z,7680
2022-08-20T05:53:20.941Z,7872
2022-08-20T05:54:21.545Z,8016
2022-08-20T05:55:22.148Z,8108
2022-08-20T05:56:26.872Z,8164
2022-08-20T05:57:24.349Z,8216
2022-08-20T05:58:24.955Z,8268
2022-08-20T05:59:25.559Z,8296
2022-08-20T06:00:26.163Z,8324
2022-08-20T06:01:26.822Z,8256
2022-08-20T06:02:27.378Z,8056
2022-08-20T06:03:27.982Z,7804
2022-08-20T06:04:28.743Z,7692
2022-08-20T06:05:29.324Z,7868
2022-08-20T06:06:45.143Z,8320
2022-08-20T06:07:31.532Z,8904
2022-08-20T06:08:32.155Z,9424
2022-08-20T06:09:32.942Z,9920
2022-08-20T06:10:33.549Z,10384
2022-08-20T06:11:37.240Z,10764
2022-08-20T06:12:35.750Z,11092
2022-08-20T06:13:36.360Z,11276
2022-08-20T06:14:36.978Z,11400
2022-08-20T06:15:37.581Z,11440
2022-08-20T06:16:38.186Z,11464
2022-08-20T06:17:39.629Z,11624
2022-08-20T06:18:39.798Z,11876
2022-08-20T06:19:40.391Z,12104
2022-08-20T06:20:41.990Z,12244
2022-08-20T06:21:42.611Z,12280
2022-08-20T06:22:43.217Z,12312
2022-08-20T06:23:57.738Z,12364
2022-08-20T06:24:45.422Z,12488
2022-08-20T06:25:46.049Z,12632
2022-08-20T06:26:46.655Z,12740
2022-08-20T06:27:47.260Z,12664
2022-08-20T06:28:47.864Z,12324
2022-08-20T06:29:49.466Z,11816
2022-08-20T06:30:50.068Z,11272
2022-08-20T06:31:50.671Z,10952
2022-08-20T06:32:51.275Z,10604
2022-08-20T06:33:51.903Z,10664
2022-08-20T06:34:52.507Z,11268
2022-08-20T06:35:53.179Z,11576
2022-08-20T06:36:53.797Z,12408
2022-08-20T06:37:54.402Z,13976
2022-08-20T06:38:55.012Z,15052
2022-08-20T06:39:55.691Z,15156
2022-08-20T06:40:56.311Z,15156
2022-08-20T06:41:56.913Z,14944
2022-08-20T06:42:57.516Z,14384
2022-08-20T06:43:58.122Z,13640
2022-08-20T06:44:58.745Z,12472
2022-08-20T06:45:59.333Z,11260
2022-08-20T06:46:59.955Z,9896
2022-08-20T06:48:00.557Z,8436
2022-08-20T06:49:01.161Z,7292
2022-08-20T06:50:01.762Z,6740
2022-08-20T06:51:02.366Z,7468
2022-08-20T06:52:02.972Z,8928
2022-08-20T06:53:04.862Z,9792
2022-08-20T06:54:05.531Z,9812
2022-08-20T06:55:06.134Z,9184
2022-08-20T06:56:06.738Z,8244
2022-08-20T06:57:07.343Z,7164
2022-08-20T06:58:07.945Z,6672
2022-08-20T06:59:09.571Z,7320
2022-08-20T07:00:10.166Z,8352
2022-08-20T07:01:11.392Z,8840
2022-08-20T07:02:12.286Z,8456
2022-08-20T07:03:12.890Z,7504
2022-08-20T07:04:13.496Z,6244
2022-08-20T07:05:14.099Z,5352
2022-08-20T07:06:14.700Z,4960
2022-08-20T07:07:15.304Z,4920
2022-08-20T07:08:15.907Z,4976
2022-08-20T07:09:16.512Z,5040
2022-08-20T07:10:17.115Z,4984
2022-08-20T07:11:17.722Z,4840
2022-08-20T07:12:18.325Z,4692
2022-08-20T07:13:18.929Z,4540
2022-08-20T07:14:19.532Z,4328
2022-08-20T07:15:20.155Z,4044
2022-08-20T07:16:20.762Z,3888
2022-08-20T07:17:24.102Z,4000
2022-08-20T07:18:28.209Z,4152
2022-08-20T07:19:24.559Z,4392
2022-08-20T07:20:25.161Z,5136
2022-08-20T07:21:25.765Z,5916
2022-08-20T07:22:26.369Z,6648
2022-08-20T07:23:26.975Z,7540
2022-08-20T07:24:32.849Z,8552
2022-08-20T07:25:29.174Z,9320
2022-08-20T07:26:29.778Z,9716
2022-08-20T07:27:30.384Z,10032
2022-08-20T07:28:30.987Z,9976
2022-08-20T07:29:31.592Z,9568
2022-08-20T07:30:32.217Z,9040
2022-08-20T07:31:34.913Z,8796
2022-08-20T07:32:36.902Z,8840
2022-08-20T07:33:37.009Z,10088
2022-08-20T07:34:37.616Z,12512
2022-08-20T07:35:39.214Z,15212
2022-08-20T07:36:39.818Z,17576
2022-08-20T07:37:40.423Z,19648
2022-08-20T07:38:41.028Z,21120
2022-08-20T07:39:41.644Z,22272
2022-08-20T07:40:42.240Z,22912
2022-08-20T07:41:42.843Z,23328
2022-08-20T07:42:44.439Z,23712
2022-08-20T07:43:45.046Z,23712
2022-08-20T07:44:45.650Z,23488
2022-08-20T07:45:49.750Z,23200
2022-08-20T07:46:47.854Z,19264
2022-08-20T07:47:48.460Z,16928
2022-08-20T07:48:49.060Z,17084
2022-08-20T07:49:49.663Z,18208
2022-08-20T07:50:50.265Z,20192
2022-08-20T07:51:50.975Z,22240
2022-08-20T07:52:51.590Z,23008
2022-08-20T07:53:52.184Z,22368
2022-08-20T07:54:52.784Z,22176
2022-08-20T07:55:58.756Z,22560
2022-08-20T07:56:54.980Z,23008
2022-08-20T07:57:55.590Z,23904
2022-08-20T07:58:56.188Z,29088
2022-08-20T07:59:56.793Z,35776
2022-08-20T08:00:57.441Z,38304
2022-08-20T08:01:58.991Z,39968
2022-08-20T08:02:59.596Z,40384
2022-08-20T08:04:00.201Z,35488
2022-08-20T08:05:00.802Z,33184
2022-08-20T08:06:01.677Z,26784
2022-08-20T08:07:02.300Z,24896
2022-08-20T08:08:06.916Z,22816
2022-08-20T08:09:04.500Z,24512
2022-08-20T08:10:05.122Z,26560
2022-08-20T08:11:05.743Z,28064
2022-08-20T08:12:06.349Z,27968
2022-08-20T08:13:06.950Z,26592
2022-08-20T08:14:07.552Z,24960
2022-08-20T08:15:08.156Z,23360
2022-08-20T08:16:08.777Z,21760
2022-08-20T08:17:09.378Z,20960
2022-08-20T08:18:09.980Z,21248
2022-08-20T08:19:10.584Z,22528
2022-08-20T08:20:11.185Z,24672
2022-08-20T08:21:11.788Z,27040
2022-08-20T08:22:12.392Z,29568
2022-08-20T08:23:25.472Z,31264
2022-08-20T08:24:17.944Z,31552
2022-08-20T08:25:15.210Z,30080
2022-08-20T08:26:18.894Z,26144
2022-08-20T08:27:17.409Z,21920
2022-08-20T08:28:18.013Z,18080
2022-08-20T08:29:18.614Z,16844
2022-08-20T08:30:19.219Z,17060
2022-08-20T08:31:19.831Z,16228
2022-08-20T08:32:20.420Z,15356
2022-08-20T08:33:21.023Z,14788
2022-08-20T08:34:22.466Z,14332
2022-08-20T08:35:23.067Z,13996
2022-08-20T08:36:23.671Z,13532
2022-08-20T08:37:26.909Z,12956
2022-08-20T08:38:25.870Z,12104
2022-08-20T08:39:26.471Z,11272
2022-08-20T08:40:28.069Z,10456
2022-08-20T08:41:28.672Z,9944
2022-08-20T08:42:29.275Z,9964
2022-08-20T08:43:31.743Z,10916
2022-08-20T08:44:31.496Z,12000
2022-08-20T08:45:32.098Z,13876
2022-08-20T08:46:32.704Z,16532
2022-08-20T08:47:33.328Z,19424
2022-08-20T08:48:33.928Z,21600
2022-08-20T08:49:38.194Z,22368
2022-08-20T08:50:54.212Z,24704
2022-08-20T08:51:37.722Z,26400
2022-08-20T08:52:38.327Z,27584
2022-08-20T08:53:38.931Z,28480
2022-08-20T08:54:39.536Z,29408
2022-08-20T08:55:40.137Z,28960
2022-08-20T08:56:40.742Z,27360
2022-08-20T08:57:41.345Z,27296
2022-08-20T08:58:41.946Z,28800
2022-08-20T08:59:52.517Z,31040
2022-08-20T09:00:48.779Z,32832
2022-08-20T09:01:54.794Z,29760
2022-08-20T09:02:47.402Z,30496
2022-08-20T09:03:47.973Z,39616
2022-08-20T09:04:48.577Z,41728
2022-08-20T09:05:49.179Z,36096
2022-08-20T09:06:52.276Z,39072
2022-08-20T09:07:51.379Z,46688
2022-08-20T09:08:52.976Z,72064
2022-08-20T09:09:53.580Z,79008
2022-08-20T09:10:54.184Z,89632
2022-08-20T09:11:54.785Z,81408
2022-08-20T09:12:55.390Z,77440
2022-08-20T09:13:55.998Z,91264
2022-08-20T09:14:56.603Z,95936
2022-08-20T09:15:57.202Z,95168
2022-08-20T09:16:57.807Z,75104
2022-08-20T09:17:58.588Z,83712
2022-08-20T09:19:00.006Z,89216
2022-08-20T09:20:00.612Z,102816
2022-08-20T09:21:01.216Z,75648
2022-08-20T09:22:01.819Z,117440
2022-08-20T09:23:02.421Z,80192
2022-08-20T09:24:03.025Z,38080
2022-08-20T09:25:03.630Z,31552
2022-08-20T09:26:04.233Z,35008
2022-08-20T09:27:04.836Z,43392
2022-08-20T09:28:05.440Z,40640
2022-08-20T09:29:06.042Z,41056
2022-08-20T09:30:06.829Z,58720
2022-08-20T09:31:07.429Z,74848
2022-08-20T09:32:08.037Z,58240
2022-08-20T09:33:09.633Z,56480
2022-08-20T09:34:10.256Z,67648
2022-08-20T09:35:10.857Z,58016
2022-08-20T09:36:29.238Z,56896
2022-08-20T09:37:13.065Z,62016
2022-08-20T09:38:13.663Z,63648
2022-08-20T09:39:14.266Z,59168
2022-08-20T09:40:14.959Z,117408
2022-08-20T09:41:16.466Z,84352
2022-08-20T09:42:17.076Z,78784
2022-08-20T09:43:17.676Z,59680
2022-08-20T09:44:18.279Z,49408
2022-08-20T09:45:18.881Z,45504
2022-08-20T09:46:19.484Z,45600
2022-08-20T09:47:21.078Z,45952
2022-08-20T09:48:21.682Z,44864
2022-08-20T09:49:23.278Z,40032
2022-08-20T09:50:24.418Z,34400
2022-08-20T09:51:25.032Z,32192
2022-08-20T09:52:25.638Z,28832
2022-08-20T09:53:26.240Z,26496
2022-08-20T09:54:26.844Z,26400
2022-08-20T09:55:28.442Z,28608
2022-08-20T09:56:29.045Z,32288
2022-08-20T09:57:29.650Z,34624
2022-08-20T09:58:30.252Z,36544
2022-08-20T09:59:30.855Z,39680
2022-08-20T10:00:31.474Z,42624
2022-08-20T10:01:32.104Z,44192
2022-08-20T10:02:32.663Z,47936
2022-08-20T10:03:33.266Z,54112
2022-08-20T10:04:34.862Z,82848
2022-08-20T10:05:35.486Z,83584
2022-08-20T10:06:37.890Z,44928
2022-08-20T10:07:37.686Z,35040
2022-08-20T10:08:38.289Z,27520
2022-08-20T10:09:39.375Z,22112
2022-08-20T10:10:40.486Z,17728
2022-08-20T10:11:41.144Z,14332
2022-08-20T10:12:41.697Z,11968
2022-08-20T10:13:42.295Z,10492
2022-08-20T10:14:42.897Z,9992
2022-08-20T10:15:43.499Z,11256
2022-08-20T10:16:44.968Z,14052
2022-08-20T10:17:45.529Z,18208
2022-08-20T10:18:46.134Z,21472
2022-08-20T10:19:46.733Z,22624
2022-08-20T10:20:47.336Z,22496
2022-08-20T10:21:47.936Z,22592
2022-08-20T10:22:48.540Z,23808
2022-08-20T10:23:49.141Z,25312
2022-08-20T10:24:49.764Z,25344
2022-08-20T10:25:50.364Z,25152
2022-08-20T10:26:50.970Z,25408
2022-08-20T10:27:51.573Z,26112
2022-08-20T10:28:52.180Z,27936
2022-08-20T10:29:52.784Z,30752
2022-08-20T10:30:53.389Z,34208
2022-08-20T10:31:53.992Z,41280
2022-08-20T10:32:54.597Z,68800
2022-08-20T10:33:55.202Z,55328
2022-08-20T10:34:55.807Z,52000
2022-08-20T10:35:59.856Z,49888
2022-08-20T10:36:58.009Z,52512
2022-08-20T10:37:58.654Z,56960
2022-08-20T10:38:59.227Z,70560
2022-08-20T10:39:59.892Z,82144
2022-08-20T10:41:00.456Z,59936
2022-08-20T10:42:01.060Z,39424
2022-08-20T10:43:01.665Z,38048
2022-08-20T10:44:02.272Z,47328
2022-08-20T10:45:02.872Z,73632
2022-08-20T10:46:03.474Z,81664
2022-08-20T10:47:04.079Z,119424
2022-08-20T10:48:04.682Z,44672
2022-08-20T10:49:05.297Z,96160
2022-08-20T10:50:05.893Z,76480
2022-08-20T10:51:06.496Z,41216
2022-08-20T10:52:07.097Z,72672
2022-08-20T10:53:08.694Z,92416
2022-08-20T10:54:12.715Z,42528
2022-08-20T10:55:10.900Z,40928
2022-08-20T10:56:15.421Z,47392
2022-08-20T10:57:13.094Z,76256
2022-08-20T10:58:13.704Z,49888
2022-08-20T10:59:14.326Z,47264
2022-08-20T11:00:14.930Z,77152
2022-08-20T11:01:32.557Z,38912
2022-08-20T11:02:17.211Z,24736
2022-08-20T11:03:17.765Z,26944
2022-08-20T11:04:18.369Z,111968
2022-08-20T11:05:18.975Z,105056
2022-08-20T11:06:19.578Z,98624
2022-08-20T11:07:20.191Z,100576
2022-08-20T11:08:33.817Z,120608
2022-08-20T11:09:22.387Z,145248
2022-08-20T11:10:22.992Z,146688
2022-08-20T11:11:23.600Z,84704
2022-08-20T11:12:24.223Z,152128
2022-08-20T11:13:24.828Z,151328
2022-08-20T11:14:25.435Z,146240
2022-08-20T11:15:26.043Z,72160
2022-08-20T11:16:26.664Z,85280
2022-08-20T11:17:27.270Z,100608
2022-08-20T11:18:27.874Z,110080
2022-08-20T11:19:28.481Z,63232
2022-08-20T11:20:29.084Z,49504
2022-08-20T11:21:29.687Z,49408
2022-08-20T11:22:30.293Z,64480
2022-08-20T11:23:30.897Z,31488
2022-08-20T11:24:32.493Z,26688
2022-08-20T11:25:33.099Z,26976
2022-08-20T11:26:33.702Z,103808
2022-08-20T11:27:34.307Z,67424
2022-08-20T11:28:34.912Z,86656
2022-08-20T11:29:35.517Z,152128
2022-08-20T11:30:36.143Z,152800
2022-08-20T11:31:36.751Z,146560
2022-08-20T11:32:37.353Z,117376
2022-08-20T11:33:37.961Z,115360
2022-08-20T11:34:38.585Z,120512
2022-08-20T11:35:48.663Z,41152
2022-08-20T11:36:40.788Z,38208
2022-08-20T11:37:41.394Z,36832
2022-08-20T11:38:41.999Z,39360
2022-08-20T11:39:42.639Z,33984
2022-08-20T11:40:43.203Z,29440
2022-08-20T11:41:43.832Z,27968
2022-08-20T11:43:12.615Z,27776
2022-08-20T11:44:04.681Z,26336
2022-08-20T11:44:48.595Z,25568
2022-08-20T11:45:49.201Z,29760
2022-08-20T11:46:49.803Z,26912
2022-08-20T11:47:50.408Z,32576
2022-08-20T11:48:51.013Z,52000
2022-08-20T11:49:51.619Z,56640
2022-08-20T11:50:52.222Z,24736
2022-08-20T11:51:52.825Z,23488
2022-08-20T11:52:53.425Z,25664
2022-08-20T11:53:54.029Z,29632
2022-08-20T11:54:54.873Z,34144
2022-08-20T11:55:55.251Z,39264
2022-08-20T11:56:56.101Z,41440
2022-08-20T11:57:56.775Z,47136
2022-08-20T11:58:58.300Z,48800
2022-08-20T11:59:58.907Z,109984
2022-08-20T12:00:59.511Z,142208
2022-08-20T12:02:02.957Z,41376
2022-08-20T12:03:01.826Z,32704
2022-08-20T12:04:02.490Z,28224
2022-08-20T12:05:03.095Z,24064
2022-08-20T12:06:03.694Z,20288
2022-08-20T12:07:04.297Z,16692
2022-08-20T12:08:04.906Z,14152
2022-08-20T12:09:05.501Z,12148
2022-08-20T12:10:06.123Z,10824
2022-08-20T12:11:06.722Z,11424
2022-08-20T12:12:07.325Z,13264
2022-08-20T12:13:07.926Z,16376
2022-08-20T12:14:08.530Z,21984
2022-08-20T12:15:09.130Z,32352
2022-08-20T12:16:09.733Z,92224
2022-08-20T12:17:10.357Z,126208
2022-08-20T12:18:10.962Z,134016
2022-08-20T12:19:11.572Z,129984
2022-08-20T12:20:12.174Z,67296
2022-08-20T12:21:12.784Z,92320
2022-08-20T12:22:24.530Z,109728
2022-08-20T12:23:14.980Z,123904
2022-08-20T12:24:15.586Z,110688
2022-08-20T12:25:16.193Z,116448
2022-08-20T12:26:16.823Z,60960
2022-08-20T12:27:17.397Z,51712
2022-08-20T12:28:18.003Z,47296
2022-08-20T12:29:19.600Z,45568
2022-08-20T12:30:20.203Z,46528
2022-08-20T12:31:20.817Z,89632
2022-08-20T12:32:21.414Z,148128
2022-08-20T12:33:22.021Z,146016
2022-08-20T12:34:22.624Z,94080
2022-08-20T12:35:23.228Z,148928
2022-08-20T12:36:23.835Z,96800
2022-08-20T12:37:24.438Z,141536
2022-08-20T12:38:25.044Z,130880
2022-08-20T12:39:25.649Z,76960
2022-08-20T12:40:32.299Z,75104
2022-08-20T12:41:27.850Z,60160
2022-08-20T12:42:28.454Z,41248
2022-08-20T12:43:29.058Z,31424
2022-08-20T12:44:29.665Z,26848
2022-08-20T12:45:30.270Z,23808
2022-08-20T12:46:30.868Z,20800
2022-08-20T12:47:31.468Z,19744
2022-08-20T12:48:32.071Z,22304
2022-08-20T12:49:32.673Z,28064
2022-08-20T12:50:33.278Z,35360
2022-08-20T12:51:33.881Z,59904
2022-08-20T12:52:34.487Z,54656
2022-08-20T12:53:35.090Z,157696
2022-08-20T12:54:35.698Z,156992
2022-08-20T12:55:36.302Z,142592
2022-08-20T12:56:36.908Z,127776
2022-08-20T12:57:37.513Z,115264
2022-08-20T12:58:38.119Z,113568
2022-08-20T12:59:38.722Z,115232
2022-08-20T13:00:39.327Z,116064
2022-08-20T13:01:40.985Z,109632
2022-08-20T13:02:41.566Z,89216
2022-08-20T13:03:45.205Z,45120
2022-08-20T13:04:43.769Z,41888
2022-08-20T13:05:44.394Z,33408
2022-08-20T13:06:44.999Z,29696
2022-08-20T13:07:46.001Z,27296
2022-08-20T13:08:46.606Z,25248
2022-08-20T13:09:47.210Z,25024
2022-08-20T13:10:47.815Z,25440
2022-08-20T13:11:48.417Z,25632
2022-08-20T13:12:49.081Z,28224
2022-08-20T13:13:49.648Z,36192
2022-08-20T13:14:50.261Z,114016
2022-08-20T13:15:50.904Z,121184
2022-08-20T13:16:51.533Z,131936
2022-08-20T13:17:53.133Z,134432
2022-08-20T13:18:53.738Z,131360
2022-08-20T13:19:54.350Z,118336
2022-08-20T13:20:54.947Z,59616
2022-08-20T13:21:55.551Z,41344
2022-08-20T13:22:56.264Z,48608
2022-08-20T13:23:56.880Z,145152
2022-08-20T13:24:57.486Z,35488
2022-08-20T13:25:58.088Z,40000
2022-08-20T13:26:58.696Z,39840
2022-08-20T13:27:59.299Z,40128
2022-08-20T13:28:59.904Z,44768
2022-08-20T13:30:01.306Z,48768
2022-08-20T13:31:01.913Z,79072
2022-08-20T13:32:02.515Z,116864
2022-08-20T13:33:03.124Z,109632
2022-08-20T13:34:03.724Z,99904
2022-08-20T13:35:04.328Z,85856
2022-08-20T13:36:04.931Z,80512
2022-08-20T13:37:05.536Z,89312
2022-08-20T13:38:06.142Z,106304